Time;durP1;ratioP1;P1;durP2;ratioP2;P2;SDS_P1;SDS_P2;PMS_P1;PMS_P2;Temp;Humidity;BMP_temperature;BMP_pressure;BME280_temperature;BME280_humidity;BME280_pressure;Samples;Min_cycle;Max_cycle;Signal;HPM_P1;HPM_P2
2022/10/17 00:01:38;;;;;;;;;;;;;;;;;;5056674;28;19995;-65
2022/10/17 00:04:03;;;;;;;;;;;;;;;;;;5061026;28;20131;-66
2022/10/17 00:06:28;;;;;;;;;;;;;;;;;;5059742;28;20242;-65
2022/10/17 00:08:53;;;;;;;;;;;;;;;;;;5057739;28;19974;-64
2022/10/17 00:11:19;;;;;;;;;;;;;;;;;;5060471;28;19917;-64
2022/10/17 00:13:44;;;;;;;;;;;;;;;;;;5060349;28;19917;-65
2022/10/17 00:16:09;;;;;;;;;;;;;;;;;;5054927;28;19917;-65
2022/10/17 00:18:34;;;;;;;;;;;;;;;;;;5055507;28;20416;-65
2022/10/17 00:20:59;;;;;;;;;;;;;;;;;;5058986;28;20384;-65
2022/10/17 00:23:26;;;;;;;;;;;;;;;;;;5052514;28;19920;-64
2022/10/17 00:25:51;;;;;;;;;;;;;;;;;;5058257;28;20284;-64
2022/10/17 00:28:16;;;;;;;;;;;;;;;;;;5057073;28;20416;-65
2022/10/17 00:30:41;;;;;;;;;;;;;;;;;;5059794;28;20003;-65
2022/10/17 00:33:06;;;;;;;;;;;;;;;;;;5068098;28;19944;-64
2022/10/17 00:35:31;;;;;;;;;;;;;;;;;;5058001;28;19942;-65
2022/10/17 00:37:57;;;;;;;;;;;;;;;;;;5055259;28;19923;-64
2022/10/17 00:40:22;;;;;;;;;;;;;;;;;;5056538;28;19912;-64
2022/10/17 00:42:50;;;;;;;;;;;;;;;;;;5051030;28;19917;-65
2022/10/17 00:45:15;;;;;;;;;;;;;;;;;;5057982;28;20360;-65
2022/10/17 00:47:40;;;;;;;;;;;;;;;;;;5055499;28;19934;-65
2022/10/17 00:50:05;;;;;;;;;;;;;;;;;;5064794;28;20378;-64
2022/10/17 00:52:30;;;;;;;;;;;;;;;;;;5056345;28;19974;-66
2022/10/17 00:54:55;;;;;;;;;;;;;;;;;;5065319;28;19925;-65
2022/10/17 00:57:20;;;;;;;;;;;;;;;;;;5070448;28;20213;-64
2022/10/17 00:59:45;;;;;;;;;;;;;;;;;;5069975;28;19983;-65
2022/10/17 01:02:12;;;;;;;;;;;;;;;;;;5066664;28;19913;-65
2022/10/17 01:04:37;;;;;;;;;;;;;;;;;;5053206;28;19920;-65
2022/10/17 01:07:02;;;;;;;;;;;;;;;;;;5052176;28;19908;-64
2022/10/17 01:09:27;;;;;;;;;;;;;;;;;;5064832;28;20275;-65
2022/10/17 01:11:52;;;;;;;;;;;;;;;;;;5070644;28;20395;-64
2022/10/17 01:14:17;;;;;;;;;;;;;;;;;;5071189;28;20351;-64
2022/10/17 01:16:42;;;;;;;;;;;;;;;;;;5058788;28;20246;-65
2022/10/17 01:19:08;;;;;;;;;;;;;;;;;;5066246;28;20367;-65
2022/10/17 01:21:33;;;;;;;;;;;;;;;;;;5063431;28;20335;-65
2022/10/17 01:23:58;;;;;;;;;;;;;;;;;;5074192;28;19934;-65
2022/10/17 01:26:23;;;;;;;;;;;;;;;;;;5073916;28;19930;-65
2022/10/17 01:28:48;;;;;;;;;;;;;;;;;;5074272;28;19939;-64
2022/10/17 01:31:14;;;;;;;;;;;;;;;;;;5058960;28;19913;-65
2022/10/17 01:33:39;;;;;;;;;;;;;;;;;;5056537;28;20053;-65
2022/10/17 01:36:04;;;;;;;;;;;;;;;;;;5065498;28;20007;-64
2022/10/17 01:38:29;;;;;;;;;;;;;;;;;;5073884;28;19975;-65
2022/10/17 01:40:54;;;;;;;;;;;;;;;;;;5074774;28;19924;-65
2022/10/17 01:43:19;;;;;;;;;;;;;;;;;;5075061;28;19917;-65
2022/10/17 01:45:44;;;;;;;;;;;;;;;;;;5071055;28;19924;-64
2022/10/17 01:48:09;;;;;;;;;;;;;;;;;;5063462;28;19912;-64
2022/10/17 01:50:34;;;;;;;;;;;;;;;;;;5074557;28;19939;-64
2022/10/17 01:53:00;;;;;;;;;;;;;;;;;;5064583;28;19916;-64
2022/10/17 01:55:25;;;;;;;;;;;;;;;;;;5060216;28;19970;-65
2022/10/17 01:57:50;;;;;;;;;;;;;;;;;;5073101;28;20341;-65
2022/10/17 02:00:15;;;;;;;;;;;;;;;;;;5073640;28;20334;-64
2022/10/17 02:02:40;;;;;;;;;;;;;;;;;;5055601;28;19939;-65
2022/10/17 02:05:05;;;;;;;;;;;;;;;;;;5058475;28;20327;-64
2022/10/17 02:07:30;;;;;;;;;;;;;;;;;;5061816;28;20414;-65
2022/10/17 02:09:55;;;;;;;;;;;;;;;;;;5062784;28;20303;-65
2022/10/17 02:12:20;;;;;;;;;;;;;;;;;;5063790;28;20392;-64
2022/10/17 02:14:46;;;;;;;;;;;;;;;;;;5074061;28;19927;-64
2022/10/17 02:17:11;;;;;;;;;;;;;;;;;;5065453;28;20376;-65
2022/10/17 02:19:36;;;;;;;;;;;;;;;;;;5069801;28;20367;-65
2022/10/17 02:22:01;;;;;;;;;;;;;;;;;;5067070;28;20390;-64
2022/10/17 02:24:26;;;;;;;;;;;;;;;;;;5073834;28;19912;-64
2022/10/17 02:26:51;;;;;;;;;;;;;;;;;;5072854;28;20148;-64
2022/10/17 02:29:16;;;;;;;;;;;;;;;;;;5073561;28;19919;-65
2022/10/17 02:31:41;;;;;;;;;;;;;;;;;;5057628;28;20257;-64
2022/10/17 02:34:07;;;;;;;;;;;;;;;;;;5057973;28;20384;-65
2022/10/17 02:36:32;;;;;;;;;;;;;;;;;;5072203;28;19964;-65
2022/10/17 02:38:57;;;;;;;;;;;;;;;;;;5060564;28;20473;-67
2022/10/17 02:41:22;;;;;;;;;;;;;;;;;;5073422;28;19916;-67
2022/10/17 02:43:47;;;;;;;;;;;;;;;;;;5073463;28;19943;-68
2022/10/17 02:46:19;;;;;;;;;;;;;;;;;;5065468;28;20287;-67
2022/10/17 02:48:44;;;;;;;;;;;;;;;;;;5067178;28;19923;-68
2022/10/17 02:51:09;;;;;;;;;;;;;;;;;;5073392;28;19925;-67
2022/10/17 02:53:34;;;;;;;;;;;;;;;;;;5064005;28;20020;-67
2022/10/17 02:55:59;;;;;;;;;;;;;;;;;;5066575;28;20011;-68
2022/10/17 02:58:25;;;;;;;;;;;;;;;;;;5073584;28;20347;-64
2022/10/17 03:00:50;;;;;;;;;;;;;;;;;;5071916;28;20288;-65
2022/10/17 03:03:15;;;;;;;;;;;;;;;;;;5073229;28;20387;-64
2022/10/17 03:05:40;;;;;;;;;;;;;;;;;;5071523;28;19925;-64
2022/10/17 03:08:05;;;;;;;;;;;;;;;;;;5061673;28;19920;-65
2022/10/17 03:10:30;;;;;;;;;;;;;;;;;;5055824;28;19909;-64
2022/10/17 03:12:55;;;;;;;;;;;;;;;;;;5057538;28;20348;-64
2022/10/17 03:15:20;;;;;;;;;;;;;;;;;;5068107;28;19989;-64
2022/10/17 03:17:45;;;;;;;;;;;;;;;;;;5073574;28;19916;-65
2022/10/17 03:20:11;;;;;;;;;;;;;;;;;;5070956;28;19912;-65
2022/10/17 03:22:36;;;;;;;;;;;;;;;;;;5058278;28;19920;-65
2022/10/17 03:25:01;;;;;;;;;;;;;;;;;;5058957;28;20347;-64
2022/10/17 03:27:26;;;;;;;;;;;;;;;;;;5062044;28;19955;-65
2022/10/17 03:29:51;;;;;;;;;;;;;;;;;;5071713;28;19916;-64
2022/10/17 03:32:16;;;;;;;;;;;;;;;;;;5072542;28;19990;-64
2022/10/17 03:34:41;;;;;;;;;;;;;;;;;;5059170;28;19927;-65
2022/10/17 03:37:06;;;;;;;;;;;;;;;;;;5069062;28;19917;-67
2022/10/17 03:39:32;;;;;;;;;;;;;;;;;;5072120;28;20380;-64
2022/10/17 03:41:57;;;;;;;;;;;;;;;;;;5073009;28;19909;-64
2022/10/17 03:44:22;;;;;;;;;;;;;;;;;;5072927;28;20287;-64
2022/10/17 03:46:47;;;;;;;;;;;;;;;;;;5072204;28;19908;-64
2022/10/17 03:49:12;;;;;;;;;;;;;;;;;;5071718;28;20380;-65
2022/10/17 03:51:37;;;;;;;;;;;;;;;;;;5071928;28;20066;-65
2022/10/17 03:54:02;;;;;;;;;;;;;;;;;;5072076;28;20408;-64
2022/10/17 03:56:27;;;;;;;;;;;;;;;;;;5071467;28;19913;-65
2022/10/17 03:58:53;;;;;;;;;;;;;;;;;;5071572;28;19928;-65
2022/10/17 04:01:18;;;;;;;;;;;;;;;;;;5069668;28;19909;-64
2022/10/17 04:03:43;;;;;;;;;;;;;;;;;;5070940;28;20359;-66
2022/10/17 04:06:08;;;;;;;;;;;;;;;;;;5071007;28;19924;-65
2022/10/17 04:08:33;;;;;;;;;;;;;;;;;;5072012;28;19920;-64
2022/10/17 04:10:58;;;;;;;;;;;;;;;;;;5071141;28;19913;-65
2022/10/17 04:13:23;;;;;;;;;;;;;;;;;;5067923;28;20360;-64
2022/10/17 04:15:49;;;;;;;;;;;;;;;;;;5061012;28;20432;-64
2022/10/17 04:18:14;;;;;;;;;;;;;;;;;;5071632;28;19913;-64
2022/10/17 04:20:39;;;;;;;;;;;;;;;;;;5059221;28;19966;-64
2022/10/17 04:23:04;;;;;;;;;;;;;;;;;;5070491;28;19916;-65
2022/10/17 04:25:29;;;;;;;;;;;;;;;;;;5059095;28;19971;-65
2022/10/17 04:27:54;;;;;;;;;;;;;;;;;;5066763;28;19917;-65
2022/10/17 04:30:19;;;;;;;;;;;;;;;;;;5070583;28;19930;-65
2022/10/17 04:32:44;;;;;;;;;;;;;;;;;;5071957;28;19978;-65
2022/10/17 04:35:09;;;;;;;;;;;;;;;;;;5066403;28;19948;-65
2022/10/17 04:37:35;;;;;;;;;;;;;;;;;;5064508;28;19913;-64
2022/10/17 04:40:00;;;;;;;;;;;;;;;;;;5070144;28;19965;-65
2022/10/17 04:42:25;;;;;;;;;;;;;;;;;;5071263;28;19951;-65
2022/10/17 04:44:50;;;;;;;;;;;;;;;;;;5061466;28;19924;-65
2022/10/17 04:47:15;;;;;;;;;;;;;;;;;;5068560;28;19916;-63
2022/10/17 04:49:40;;;;;;;;;;;;;;;;;;5071514;28;19947;-65
2022/10/17 04:52:05;;;;;;;;;;;;;;;;;;5070915;28;19982;-64
2022/10/17 04:54:31;;;;;;;;;;;;;;;;;;5060646;28;20003;-65
2022/10/17 04:56:56;;;;;;;;;;;;;;;;;;5072412;28;19959;-65
2022/10/17 04:59:21;;;;;;;;;;;;;;;;;;5073916;28;20326;-66
2022/10/17 05:01:46;;;;;;;;;;;;;;;;;;5067958;28;19967;-65
2022/10/17 05:04:11;;;;;;;;;;;;;;;;;;5071154;28;20007;-64
2022/10/17 05:06:36;;;;;;;;;;;;;;;;;;5065157;28;19956;-64
2022/10/17 05:09:01;;;;;;;;;;;;;;;;;;5062411;28;20287;-64
2022/10/17 05:11:27;;;;;;;;;;;;;;;;;;5069740;28;19919;-63
2022/10/17 05:13:52;;;;;;;;;;;;;;;;;;5069041;28;19912;-65
2022/10/17 05:16:17;;;;;;;;;;;;;;;;;;5075527;28;19919;-65
2022/10/17 05:18:42;;;;;;;;;;;;;;;;;;5076027;28;20341;-64
2022/10/17 05:21:07;;;;;;;;;;;;;;;;;;5075928;28;20005;-65
2022/10/17 05:23:32;;;;;;;;;;;;;;;;;;5075976;28;20396;-65
2022/10/17 05:25:57;;;;;;;;;;;;;;;;;;5075778;28;19909;-65
2022/10/17 05:28:22;;;;;;;;;;;;;;;;;;5075748;28;19920;-65
2022/10/17 05:30:48;;;;;;;;;;;;;;;;;;5071073;28;20284;-66
2022/10/17 05:33:13;;;;;;;;;;;;;;;;;;5055877;28;19916;-67
2022/10/17 05:35:38;;;;;;;;;;;;;;;;;;5055680;28;19913;-66
2022/10/17 05:38:03;;;;;;;;;;;;;;;;;;5055692;28;20368;-65
2022/10/17 05:40:28;;;;;;;;;;;;;;;;;;5055501;28;19958;-65
2022/10/17 05:42:54;;;;;;;;;;;;;;;;;;5055117;28;20380;-65
2022/10/17 05:45:19;;;;;;;;;;;;;;;;;;5055171;28;19955;-65
2022/10/17 05:47:44;;;;;;;;;;;;;;;;;;5062474;28;19923;-65
2022/10/17 05:50:09;;;;;;;;;;;;;;;;;;5074299;28;20279;-66
2022/10/17 05:52:34;;;;;;;;;;;;;;;;;;5074624;28;19912;-65
2022/10/17 05:54:59;;;;;;;;;;;;;;;;;;5074440;28;19912;-65
2022/10/17 05:57:25;;;;;;;;;;;;;;;;;;5074707;28;19920;-66
2022/10/17 05:59:50;;;;;;;;;;;;;;;;;;5073372;28;19917;-65
2022/10/17 06:02:15;;;;;;;;;;;;;;;;;;5074156;28;19916;-66
2022/10/17 06:04:44;;;;;;;;;;;;;;;;;;5074127;28;19920;-65
2022/10/17 06:07:09;;;;;;;;;;;;;;;;;;5069876;28;19962;-65
2022/10/17 06:09:34;;;;;;;;;;;;;;;;;;5074216;28;20019;-65
2022/10/17 06:11:59;;;;;;;;;;;;;;;;;;5073512;28;20012;-66
2022/10/17 06:14:24;;;;;;;;;;;;;;;;;;5055792;28;19909;-68
2022/10/17 06:16:49;;;;;;;;;;;;;;;;;;5054523;28;20447;-65
2022/10/17 06:19:15;;;;;;;;;;;;;;;;;;5060531;28;20011;-65
2022/10/17 06:21:40;;;;;;;;;;;;;;;;;;5074464;28;19915;-65
2022/10/17 06:24:05;;;;;;;;;;;;;;;;;;5074759;28;20318;-65
2022/10/17 06:26:30;;;;;;;;;;;;;;;;;;5074789;28;19912;-65
2022/10/17 06:28:55;;;;;;;;;;;;;;;;;;5056436;28;19908;-66
2022/10/17 06:31:20;;;;;;;;;;;;;;;;;;5074639;28;19917;-66
2022/10/17 06:33:45;;;;;;;;;;;;;;;;;;5074498;28;19909;-65
2022/10/17 06:36:10;;;;;;;;;;;;;;;;;;5074585;28;19920;-66
2022/10/17 06:38:36;;;;;;;;;;;;;;;;;;5073756;28;19916;-66
2022/10/17 06:41:01;;;;;;;;;;;;;;;;;;5074356;28;19909;-65
2022/10/17 06:43:26;;;;;;;;;;;;;;;;;;5072992;28;19913;-66
2022/10/17 06:45:51;;;;;;;;;;;;;;;;;;5072594;28;19944;-66
2022/10/17 06:48:16;;;;;;;;;;;;;;;;;;5056409;28;20018;-66
2022/10/17 06:50:41;;;;;;;;;;;;;;;;;;5073995;28;19909;-66
2022/10/17 06:53:06;;;;;;;;;;;;;;;;;;5074309;28;19962;-65
2022/10/17 06:55:31;;;;;;;;;;;;;;;;;;5074048;28;19966;-66
2022/10/17 06:57:56;;;;;;;;;;;;;;;;;;5073927;28;19913;-65
2022/10/17 07:00:22;;;;;;;;;;;;;;;;;;5073982;28;19912;-65
2022/10/17 07:02:47;;;;;;;;;;;;;;;;;;5073732;28;20279;-65
2022/10/17 07:05:12;;;;;;;;;;;;;;;;;;5073706;28;19927;-65
2022/10/17 07:07:37;;;;;;;;;;;;;;;;;;5073993;28;19908;-65
2022/10/17 07:10:07;;;;;;;;;;;;;;;;;;5073568;28;19924;-66
2022/10/17 07:12:32;;;;;;;;;;;;;;;;;;5073789;28;19909;-65
2022/10/17 07:14:57;;;;;;;;;;;;;;;;;;5073831;28;19908;-66
2022/10/17 07:17:22;;;;;;;;;;;;;;;;;;5073344;28;20636;-65
2022/10/17 07:19:47;;;;;;;;;;;;;;;;;;5073583;28;19988;-65
2022/10/17 07:22:12;;;;;;;;;;;;;;;;;;5073366;28;20364;-65
2022/10/17 07:24:38;;;;;;;;;;;;;;;;;;5073450;28;20004;-66
2022/10/17 07:27:03;;;;;;;;;;;;;;;;;;5073433;28;19955;-66
2022/10/17 07:29:31;;;;;;;;;;;;;;;;;;5073627;28;19908;-65
2022/10/17 07:31:56;;;;;;;;;;;;;;;;;;5073204;28;19934;-65
2022/10/17 07:34:26;;;;;;;;;;;;;;;;;;5073501;28;20376;-65
2022/10/17 07:36:51;;;;;;;;;;;;;;;;;;5073249;28;20384;-65
2022/10/17 07:39:17;;;;;;;;;;;;;;;;;;5073073;28;20007;-65
2022/10/17 07:41:42;;;;;;;;;;;;;;;;;;5073331;28;19954;-65
2022/10/17 07:44:07;;;;;;;;;;;;;;;;;;5073312;28;19908;-65
2022/10/17 07:46:32;;;;;;;;;;;;;;;;;;5073881;28;20050;-67
2022/10/17 07:48:57;;;;;;;;;;;;;;;;;;5073812;28;19951;-66
2022/10/17 07:51:22;;;;;;;;;;;;;;;;;;5074058;28;19995;-66
2022/10/17 07:53:48;;;;;;;;;;;;;;;;;;5073688;28;20042;-66
2022/10/17 07:56:13;;;;;;;;;;;;;;;;;;5073370;28;19916;-66
2022/10/17 07:58:38;;;;;;;;;;;;;;;;;;5073688;28;20014;-67
2022/10/17 08:01:03;;;;;;;;;;;;;;;;;;5073383;28;19923;-66
2022/10/17 08:03:28;;;;;;;;;;;;;;;;;;5073481;28;19915;-66
2022/10/17 08:05:53;;;;;;;;;;;;;;;;;;5072872;28;19921;-66
2022/10/17 08:08:18;;;;;;;;;;;;;;;;;;5072966;28;20029;-66
2022/10/17 08:10:44;;;;;;;;;;;;;;;;;;5072866;28;19936;-66
2022/10/17 08:13:09;;;;;;;;;;;;;;;;;;5073463;28;19908;-66
2022/10/17 08:15:34;;;;;;;;;;;;;;;;;;5073603;28;19919;-66
2022/10/17 08:17:59;;;;;;;;;;;;;;;;;;5072989;28;20293;-66
2022/10/17 08:20:24;;;;;;;;;;;;;;;;;;5070082;28;19909;-66
2022/10/17 08:22:49;;;;;;;;;;;;;;;;;;5073378;28;19939;-66
2022/10/17 08:25:14;;;;;;;;;;;;;;;;;;5073511;28;19908;-67
2022/10/17 08:27:39;;;;;;;;;;;;;;;;;;5073053;28;19909;-66
2022/10/17 08:30:05;;;;;;;;;;;;;;;;;;5072360;28;19908;-67
2022/10/17 08:32:30;;;;;;;;;;;;;;;;;;5072480;28;20415;-66
2022/10/17 08:34:55;;;;;;;;;;;;;;;;;;5073089;28;19908;-67
2022/10/17 08:37:20;;;;;;;;;;;;;;;;;;5070209;28;19919;-66
2022/10/17 08:39:45;;;;;;;;;;;;;;;;;;5072777;28;20405;-67
2022/10/17 08:42:10;;;;;;;;;;;;;;;;;;5073040;28;19915;-67
2022/10/17 08:44:35;;;;;;;;;;;;;;;;;;5072978;28;20390;-66
2022/10/17 08:47:00;;;;;;;;;;;;;;;;;;5072931;28;19912;-66
2022/10/17 08:49:25;;;;;;;;;;;;;;;;;;5073294;28;19908;-66
2022/10/17 08:51:51;;;;;;;;;;;;;;;;;;5072753;28;19915;-66
2022/10/17 08:54:16;;;;;;;;;;;;;;;;;;5073023;28;19961;-66
2022/10/17 08:56:41;;;;;;;;;;;;;;;;;;5072924;28;19967;-67
2022/10/17 08:59:06;;;;;;;;;;;;;;;;;;5072554;28;20395;-66
2022/10/17 09:01:31;;;;;;;;;;;;;;;;;;5072831;28;19951;-66
2022/10/17 09:03:56;;;;;;;;;;;;;;;;;;5072598;28;19917;-67
2022/10/17 09:06:24;;;;;;;;;;;;;;;;;;5072152;28;19917;-66
2022/10/17 09:08:49;;;;;;;;;;;;;;;;;;5072327;28;19947;-67
2022/10/17 09:11:14;;;;;;;;;;;;;;;;;;5072754;28;19962;-66
2022/10/17 09:13:39;;;;;;;;;;;;;;;;;;5072566;28;19909;-66
2022/10/17 09:16:06;;;;;;;;;;;;;;;;;;5072205;28;19920;-66
2022/10/17 09:18:31;;;;;;;;;;;;;;;;;;5072235;28;19912;-66
2022/10/17 09:20:59;;;;;;;;;;;;;;;;;;5072297;28;19909;-67
2022/10/17 09:23:24;;;;;;;;;;;;;;;;;;5071981;28;19913;-66
2022/10/17 09:25:49;;;;;;;;;;;;;;;;;;5072244;28;19909;-66
2022/10/17 09:28:15;;;;;;;;;;;;;;;;;;5072593;28;19919;-66
2022/10/17 09:30:41;;;;;;;;;;;;;;;;;;5072449;28;20275;-66
2022/10/17 09:33:06;;;;;;;;;;;;;;;;;;5072545;28;20272;-66
2022/10/17 09:35:31;;;;;;;;;;;;;;;;;;5072545;28;20342;-67
2022/10/17 09:37:56;;;;;;;;;;;;;;;;;;5072456;28;20360;-67
2022/10/17 09:40:21;;;;;;;;;;;;;;;;;;5072545;28;20038;-66
2022/10/17 09:42:46;;;;;;;;;;;;;;;;;;5075779;28;19936;-67
2022/10/17 09:45:11;;;;;;;;;;;;;;;;;;5076044;28;19909;-66
2022/10/17 09:47:38;;;;;;;;;;;;;;;;;;5075772;28;20007;-66
2022/10/17 09:50:03;;;;;;;;;;;;;;;;;;5075336;28;19919;-66
2022/10/17 09:52:28;;;;;;;;;;;;;;;;;;5075814;28;19980;-67
2022/10/17 09:54:53;;;;;;;;;;;;;;;;;;5075895;28;19913;-67
2022/10/17 09:57:18;;;;;;;;;;;;;;;;;;5074875;28;19912;-67
2022/10/17 09:59:43;;;;;;;;;;;;;;;;;;5075177;28;19918;-66
2022/10/17 10:02:08;;;;;;;;;;;;;;;;;;5075337;28;19957;-67
2022/10/17 10:04:33;;;;;;;;;;;;;;;;;;5075051;28;20011;-67
2022/10/17 10:06:59;;;;;;;;;;;;;;;;;;5074809;28;19935;-66
2022/10/17 10:09:24;;;;;;;;;;;;;;;;;;5075285;28;19934;-66
2022/10/17 10:11:49;;;;;;;;;;;;;;;;;;5074737;28;20019;-66
2022/10/17 10:14:14;;;;;;;;;;;;;;;;;;5072599;28;20333;-67
2022/10/17 10:16:39;;;;;;;;;;;;;;;;;;5074880;28;19912;-67
2022/10/17 10:19:04;;;;;;;;;;;;;;;;;;5074906;28;19916;-66
2022/10/17 10:21:29;;;;;;;;;;;;;;;;;;5075123;28;19999;-65
2022/10/17 10:23:54;;;;;;;;;;;;;;;;;;5075197;28;19986;-66
2022/10/17 10:26:21;;;;;;;;;;;;;;;;;;5074782;28;19958;-66
2022/10/17 10:28:46;;;;;;;;;;;;;;;;;;5075048;28;19909;-67
2022/10/17 10:31:11;;;;;;;;;;;;;;;;;;5074919;28;20249;-66
2022/10/17 10:33:36;;;;;;;;;;;;;;;;;;5074092;28;20384;-66
2022/10/17 10:36:02;;;;;;;;;;;;;;;;;;5074663;28;20601;-66
2022/10/17 10:38:27;;;;;;;;;;;;;;;;;;5071504;28;19908;-66
2022/10/17 10:40:52;;;;;;;;;;;;;;;;;;5074904;28;20367;-67
2022/10/17 10:43:17;;;;;;;;;;;;;;;;;;5074630;28;20360;-67
2022/10/17 10:45:42;;;;;;;;;;;;;;;;;;5074559;28;20272;-64
2022/10/17 10:48:07;;;;;;;;;;;;;;;;;;5074964;28;20389;-66
2022/10/17 10:50:32;;;;;;;;;;;;;;;;;;5074968;28;20408;-67
2022/10/17 10:52:57;;;;;;;;;;;;;;;;;;5075009;28;19970;-67
2022/10/17 10:55:23;;;;;;;;;;;;;;;;;;5076164;28;19931;-67
2022/10/17 10:57:48;;;;;;;;;;;;;;;;;;5075722;28;19916;-67
2022/10/17 11:00:14;;;;;;;;;;;;;;;;;;5075007;28;20447;-68
2022/10/17 11:02:39;;;;;;;;;;;;;;;;;;5075628;28;19908;-66
2022/10/17 11:05:04;;;;;;;;;;;;;;;;;;5075269;28;19994;-65
2022/10/17 11:07:29;;;;;;;;;;;;;;;;;;5074398;28;20506;-67
2022/10/17 11:09:54;;;;;;;;;;;;;;;;;;5073831;28;19916;-66
2022/10/17 11:12:19;;;;;;;;;;;;;;;;;;5074388;28;19999;-66
2022/10/17 11:14:45;;;;;;;;;;;;;;;;;;5074207;28;19948;-66
2022/10/17 11:17:10;;;;;;;;;;;;;;;;;;5074353;28;20280;-66
2022/10/17 11:19:35;;;;;;;;;;;;;;;;;;5074170;28;20399;-66
2022/10/17 11:22:00;;;;;;;;;;;;;;;;;;5074879;28;19908;-67
2022/10/17 11:24:25;;;;;;;;;;;;;;;;;;5074132;28;19991;-67
2022/10/17 11:26:50;;;;;;;;;;;;;;;;;;5074271;28;20380;-66
2022/10/17 11:29:15;;;;;;;;;;;;;;;;;;5074279;28;19912;-66
2022/10/17 11:31:40;;;;;;;;;;;;;;;;;;5074132;28;19916;-67
2022/10/17 11:34:06;;;;;;;;;;;;;;;;;;5073858;28;19912;-65
2022/10/17 11:36:31;;;;;;;;;;;;;;;;;;5074103;28;19921;-65
2022/10/17 11:38:56;;;;;;;;;;;;;;;;;;5074096;28;19987;-66
2022/10/17 11:41:21;;;;;;;;;;;;;;;;;;5073653;28;20372;-66
2022/10/17 11:43:46;;;;;;;;;;;;;;;;;;5073551;28;19908;-66
2022/10/17 11:46:11;;;;;;;;;;;;;;;;;;5074068;28;19958;-65
2022/10/17 11:48:36;;;;;;;;;;;;;;;;;;5074570;28;19908;-67
2022/10/17 11:51:01;;;;;;;;;;;;;;;;;;5073736;28;19909;-68
2022/10/17 11:53:27;;;;;;;;;;;;;;;;;;5074755;28;19962;-66
2022/10/17 11:55:52;;;;;;;;;;;;;;;;;;5073468;28;20062;-66
2022/10/17 11:58:17;;;;;;;;;;;;;;;;;;5074672;28;19915;-68
2022/10/17 12:00:42;;;;;;;;;;;;;;;;;;5073140;28;19916;-66
2022/10/17 12:03:07;;;;;;;;;;;;;;;;;;5073343;28;19909;-67
2022/10/17 12:05:32;;;;;;;;;;;;;;;;;;5072831;28;20497;-68
2022/10/17 12:07:57;;;;;;;;;;;;;;;;;;5070134;28;20373;-68
2022/10/17 12:10:22;;;;;;;;;;;;;;;;;;5072915;28;19908;-67
2022/10/17 12:12:48;;;;;;;;;;;;;;;;;;5073930;28;19916;-68
2022/10/17 12:15:13;;;;;;;;;;;;;;;;;;5073578;28;19918;-68
2022/10/17 12:17:39;;;;;;;;;;;;;;;;;;5073095;28;19974;-68
2022/10/17 12:20:04;;;;;;;;;;;;;;;;;;5073235;28;19966;-68
2022/10/17 12:22:29;;;;;;;;;;;;;;;;;;5073225;28;19912;-69
2022/10/17 12:24:54;;;;;;;;;;;;;;;;;;5073584;28;19951;-69
2022/10/17 12:27:19;;;;;;;;;;;;;;;;;;5073663;28;19909;-68
2022/10/17 12:29:45;;;;;;;;;;;;;;;;;;5073949;28;20008;-69
2022/10/17 12:32:10;;;;;;;;;;;;;;;;;;5074314;28;20439;-69
2022/10/17 12:34:35;;;;;;;;;;;;;;;;;;5073422;28;19909;-68
2022/10/17 12:37:00;;;;;;;;;;;;;;;;;;5073551;28;20291;-68
2022/10/17 12:39:26;;;;;;;;;;;;;;;;;;5070606;28;20344;-68
2022/10/17 12:41:51;;;;;;;;;;;;;;;;;;5073689;28;20336;-67
2022/10/17 12:44:20;;;;;;;;;;;;;;;;;;5073664;28;20421;-69
2022/10/17 12:46:45;;;;;;;;;;;;;;;;;;5073707;28;19999;-68
2022/10/17 12:49:10;;;;;;;;;;;;;;;;;;5073670;28;19936;-69
2022/10/17 12:51:35;;;;;;;;;;;;;;;;;;5073273;28;19912;-68
2022/10/17 12:54:00;;;;;;;;;;;;;;;;;;5073832;28;20014;-69
2022/10/17 12:56:25;;;;;;;;;;;;;;;;;;5072917;28;19982;-68
2022/10/17 12:58:50;;;;;;;;;;;;;;;;;;5073471;28;19916;-68
2022/10/17 13:01:16;;;;;;;;;;;;;;;;;;5073521;28;19908;-68
2022/10/17 13:03:41;;;;;;;;;;;;;;;;;;5073574;28;19908;-68
2022/10/17 13:06:06;;;;;;;;;;;;;;;;;;5073971;28;19916;-69
2022/10/17 13:08:31;;;;;;;;;;;;;;;;;;5073865;28;20017;-70
2022/10/17 13:10:56;;;;;;;;;;;;;;;;;;5072550;28;19908;-69
2022/10/17 13:13:21;;;;;;;;;;;;;;;;;;5073790;28;19915;-69
2022/10/17 13:15:46;;;;;;;;;;;;;;;;;;5074010;28;20352;-70
2022/10/17 13:18:11;;;;;;;;;;;;;;;;;;5077363;28;19951;-69
2022/10/17 13:20:36;;;;;;;;;;;;;;;;;;5078148;28;20327;-69
2022/10/17 13:23:02;;;;;;;;;;;;;;;;;;5078922;28;20378;-69
2022/10/17 13:25:27;;;;;;;;;;;;;;;;;;5078585;28;19940;-69
2022/10/17 13:27:53;;;;;;;;;;;;;;;;;;5079847;28;19964;-69
2022/10/17 13:30:18;;;;;;;;;;;;;;;;;;5078282;28;20455;-69
2022/10/17 13:32:44;;;;;;;;;;;;;;;;;;5077606;28;19908;-68
2022/10/17 13:35:09;;;;;;;;;;;;;;;;;;5077119;28;20284;-68
2022/10/17 13:37:34;;;;;;;;;;;;;;;;;;5077002;28;19917;-68
2022/10/17 13:39:59;;;;;;;;;;;;;;;;;;5076881;28;19913;-69
2022/10/17 13:42:24;;;;;;;;;;;;;;;;;;5077760;28;19909;-68
2022/10/17 13:44:49;;;;;;;;;;;;;;;;;;5079809;28;19909;-69
2022/10/17 13:47:15;;;;;;;;;;;;;;;;;;5076588;28;19909;-68
2022/10/17 13:49:40;;;;;;;;;;;;;;;;;;5076375;28;20008;-69
2022/10/17 13:52:05;;;;;;;;;;;;;;;;;;5076249;28;19912;-68
2022/10/17 13:54:30;;;;;;;;;;;;;;;;;;5076055;28;19944;-67
2022/10/17 13:56:56;;;;;;;;;;;;;;;;;;5076157;28;19912;-68
2022/10/17 13:59:21;;;;;;;;;;;;;;;;;;5076985;28;19908;-68
2022/10/17 14:01:48;;;;;;;;;;;;;;;;;;5076250;28;20310;-69
2022/10/17 14:04:13;;;;;;;;;;;;;;;;;;5075964;28;20422;-68
2022/10/17 14:06:38;;;;;;;;;;;;;;;;;;5058064;28;19920;-69
2022/10/17 14:09:04;;;;;;;;;;;;;;;;;;5073022;28;19912;-69
2022/10/17 14:11:29;;;;;;;;;;;;;;;;;;5076379;28;19915;-69
2022/10/17 14:13:54;;;;;;;;;;;;;;;;;;5075805;28;20279;-69
2022/10/17 14:16:19;;;;;;;;;;;;;;;;;;5075483;28;20364;-69
2022/10/17 14:18:46;;;;;;;;;;;;;;;;;;5075586;28;19919;-69
2022/10/17 14:21:11;;;;;;;;;;;;;;;;;;5076613;28;20388;-69
2022/10/17 14:23:36;;;;;;;;;;;;;;;;;;5076268;28;19962;-68
2022/10/17 14:26:01;;;;;;;;;;;;;;;;;;5075664;28;19909;-69
2022/10/17 14:28:26;;;;;;;;;;;;;;;;;;5074741;28;20428;-69
2022/10/17 14:30:51;;;;;;;;;;;;;;;;;;5072556;28;19971;-68
2022/10/17 14:33:17;;;;;;;;;;;;;;;;;;5076537;28;19909;-68
2022/10/17 14:35:42;;;;;;;;;;;;;;;;;;5075967;28;19916;-69
2022/10/17 14:38:07;;;;;;;;;;;;;;;;;;5075452;28;19932;-69
2022/10/17 14:40:32;;;;;;;;;;;;;;;;;;5052431;28;20562;-69
2022/10/17 14:42:57;;;;;;;;;;;;;;;;;;5066933;28;20344;-68
2022/10/17 14:45:22;;;;;;;;;;;;;;;;;;5078030;28;20174;-68
2022/10/17 14:47:47;;;;;;;;;;;;;;;;;;5067476;28;20011;-68
2022/10/17 14:50:12;;;;;;;;;;;;;;;;;;5061279;28;19927;-68
2022/10/17 14:52:38;;;;;;;;;;;;;;;;;;5074906;28;19936;-67
2022/10/17 14:55:03;;;;;;;;;;;;;;;;;;5071378;28;19951;-69
2022/10/17 14:57:28;;;;;;;;;;;;;;;;;;5077250;28;19917;-68
2022/10/17 14:59:54;;;;;;;;;;;;;;;;;;5078981;28;19919;-68
2022/10/17 15:02:19;;;;;;;;;;;;;;;;;;5079301;28;20379;-68
2022/10/17 15:04:44;;;;;;;;;;;;;;;;;;5075892;28;19924;-69
2022/10/17 15:07:10;;;;;;;;;;;;;;;;;;5069667;28;19913;-69
2022/10/17 15:09:35;;;;;;;;;;;;;;;;;;5076690;28;19912;-69
2022/10/17 15:12:03;;;;;;;;;;;;;;;;;;5068673;28;19908;-69
2022/10/17 15:14:28;;;;;;;;;;;;;;;;;;5068900;28;19919;-69
2022/10/17 15:16:53;;;;;;;;;;;;;;;;;;5061406;28;19913;-69
2022/10/17 15:19:18;;;;;;;;;;;;;;;;;;5067921;28;19913;-69
2022/10/17 15:21:43;;;;;;;;;;;;;;;;;;5056081;28;19923;-69
2022/10/17 15:24:08;;;;;;;;;;;;;;;;;;5055387;28;19919;-69
2022/10/17 15:26:33;;;;;;;;;;;;;;;;;;5066251;28;19920;-69
2022/10/17 15:28:59;;;;;;;;;;;;;;;;;;5069413;28;20383;-69
2022/10/17 15:31:24;;;;;;;;;;;;;;;;;;5054579;28;19989;-69
2022/10/17 15:33:49;;;;;;;;;;;;;;;;;;5058258;28;19923;-69
2022/10/17 15:36:14;;;;;;;;;;;;;;;;;;5058366;28;19947;-68
2022/10/17 15:38:40;;;;;;;;;;;;;;;;;;5064120;28;19966;-69
2022/10/17 15:41:05;;;;;;;;;;;;;;;;;;5054913;28;19917;-69
2022/10/17 15:43:30;;;;;;;;;;;;;;;;;;5060940;28;19965;-69
2022/10/17 15:45:55;;;;;;;;;;;;;;;;;;5066767;28;19958;-69
2022/10/17 15:48:20;;;;;;;;;;;;;;;;;;5069866;28;19962;-69
2022/10/17 15:50:45;;;;;;;;;;;;;;;;;;5058911;28;19948;-69
2022/10/17 15:53:10;;;;;;;;;;;;;;;;;;5055742;28;19963;-69
2022/10/17 15:55:35;;;;;;;;;;;;;;;;;;5055720;28;20376;-69
2022/10/17 15:58:01;;;;;;;;;;;;;;;;;;5069246;28;20394;-69
2022/10/17 16:00:26;;;;;;;;;;;;;;;;;;5062843;28;19916;-69
2022/10/17 16:02:51;;;;;;;;;;;;;;;;;;5068182;28;19921;-69
2022/10/17 16:05:16;;;;;;;;;;;;;;;;;;5067628;28;20399;-69
2022/10/17 16:07:41;;;;;;;;;;;;;;;;;;5069016;28;19927;-69
2022/10/17 16:10:08;;;;;;;;;;;;;;;;;;5057384;28;20289;-71
2022/10/17 16:12:39;;;;;;;;;;;;;;;;;;5065470;28;20012;-69
2022/10/17 16:15:05;;;;;;;;;;;;;;;;;;5061070;28;20283;-69
2022/10/17 16:17:31;;;;;;;;;;;;;;;;;;5049793;28;20384;-70
2022/10/17 16:19:56;;;;;;;;;;;;;;;;;;5065280;28;20509;-68
2022/10/17 16:22:21;;;;;;;;;;;;;;;;;;5069661;28;20368;-69
2022/10/17 16:24:46;;;;;;;;;;;;;;;;;;5068915;28;20288;-70
2022/10/17 16:27:11;;;;;;;;;;;;;;;;;;5068980;28;20280;-69
2022/10/17 16:29:37;;;;;;;;;;;;;;;;;;5067792;28;20841;-69
2022/10/17 16:32:02;;;;;;;;;;;;;;;;;;5063978;28;19922;-70